createdAt,value
2022-11-02T00:02:21.543Z,55.30
2022-11-02T00:04:53.052Z,55.17
2022-11-02T00:07:24.046Z,59.40
2022-11-02T00:09:54.856Z,56.20
2022-11-02T00:12:22.388Z,62.92
2022-11-02T00:14:54.441Z,62.70
2022-11-02T00:17:26.191Z,61.63
2022-11-02T00:19:56.156Z,58.38
2022-11-02T00:22:26.154Z,53.33
2022-11-02T00:27:42.845Z,55.60
2022-11-02T00:30:16.726Z,56.50
2022-11-02T00:32:48.150Z,54.15
2022-11-02T00:35:17.445Z,56.75
2022-11-02T00:37:46.505Z,53.80
2022-11-02T00:40:17.473Z,52.70
2022-11-02T00:42:48.169Z,49.92
2022-11-02T00:45:25.149Z,49.95
2022-11-02T00:47:55.387Z,52.38
2022-11-02T00:50:26.425Z,53.58
2022-11-02T00:52:53.795Z,57.72
2022-11-02T00:55:24.452Z,54.72
2022-11-02T00:57:57.907Z,63.05
2022-11-02T01:00:28.971Z,67.18
2022-11-02T01:03:03.848Z,59.25
2022-11-02T01:05:36.916Z,49.90
2022-11-02T01:08:09.239Z,52.47
2022-11-02T01:10:36.491Z,47.40
2022-11-02T01:13:06.789Z,54.22
2022-11-02T01:15:36.429Z,56.33
2022-11-02T01:18:08.352Z,51.03
2022-11-02T01:20:39.043Z,50.72
2022-11-02T01:23:07.718Z,53.45
2022-11-02T01:25:35.484Z,54.70
2022-11-02T01:28:03.590Z,54.13
2022-11-02T01:30:33.766Z,55.13
2022-11-02T01:33:07.403Z,55.15
2022-11-02T01:35:38.668Z,56.88
2022-11-02T01:38:06.381Z,57.42
2022-11-02T01:40:50.164Z,51.65
2022-11-02T01:43:35.247Z,51.25
2022-11-02T01:46:13.799Z,52.00
2022-11-02T01:49:10.138Z,50.70
2022-11-02T01:51:50.607Z,49.67
2022-11-02T01:54:29.798Z,49.97
2022-11-02T01:57:04.788Z,49.63
2022-11-02T01:59:57.972Z,49.25
2022-11-02T02:02:30.780Z,49.00
2022-11-02T02:05:19.572Z,51.00
2022-11-02T02:07:51.011Z,51.55
2022-11-02T02:10:19.149Z,50.08
2022-11-02T02:16:04.020Z,49.75
2022-11-02T02:19:03.520Z,49.20
2022-11-02T02:22:05.343Z,48.33
2022-11-02T02:24:58.441Z,45.83
2022-11-02T02:27:55.673Z,47.40
2022-11-02T02:30:26.431Z,44.63
2022-11-02T02:33:07.372Z,43.58
2022-11-02T02:36:06.006Z,43.42
2022-11-02T02:39:03.973Z,46.83
2022-11-02T02:41:45.340Z,45.55
2022-11-02T02:44:33.557Z,47.20
2022-11-02T02:47:12.926Z,48.53
2022-11-02T02:49:57.289Z,45.45
2022-11-02T02:52:27.683Z,49.25
2022-11-02T02:54:59.909Z,47.63
2022-11-02T02:57:31.588Z,47.80
2022-11-02T03:00:00.191Z,47.28
2022-11-02T03:02:42.830Z,47.53
2022-11-02T03:05:32.902Z,45.90
2022-11-02T03:08:17.773Z,43.15
2022-11-02T03:11:16.094Z,44.80
2022-11-02T03:14:24.095Z,43.47
2022-11-02T03:17:11.477Z,45.40
2022-11-02T03:20:04.044Z,46.90
2022-11-02T03:23:13.556Z,47.08
2022-11-02T03:26:13.018Z,48.60
2022-11-02T03:29:03.999Z,50.67
2022-11-02T03:31:45.981Z,52.97
2022-11-02T03:34:28.159Z,51.97
2022-11-02T03:37:12.102Z,52.60
2022-11-02T03:39:51.111Z,50.00
2022-11-02T03:42:23.541Z,44.35
2022-11-02T03:45:24.846Z,45.13
2022-11-02T03:48:06.626Z,46.53
2022-11-02T03:53:51.548Z,45.72
2022-11-02T03:56:44.152Z,44.65
2022-11-02T03:59:15.819Z,42.58
2022-11-02T04:01:50.624Z,43.83
2022-11-02T04:04:24.027Z,40.47
2022-11-02T04:06:55.270Z,44.33
2022-11-02T04:09:26.062Z,44.45
2022-11-02T04:12:13.077Z,46.33
2022-11-02T04:14:43.344Z,45.22
2022-11-02T04:17:34.102Z,44.67
2022-11-02T04:20:07.163Z,43.08
2022-11-02T04:22:56.407Z,46.50
2022-11-02T04:25:27.428Z,48.58
2022-11-02T04:28:17.470Z,47.75
2022-11-02T04:31:03.040Z,47.83
2022-11-02T04:33:36.761Z,49.22
2022-11-02T04:36:11.823Z,48.25
2022-11-02T04:38:45.408Z,51.88
2022-11-02T04:41:43.041Z,55.15
2022-11-02T04:44:31.676Z,64.25
2022-11-02T04:47:26.093Z,71.47
2022-11-02T04:49:56.367Z,71.25
2022-11-02T04:52:28.357Z,66.10
2022-11-02T04:54:55.691Z,67.45
2022-11-02T04:57:27.916Z,68.25
2022-11-02T04:59:59.327Z,67.65
2022-11-02T05:02:27.892Z,67.25
2022-11-02T05:04:56.682Z,65.25
2022-11-02T05:07:29.936Z,66.90
2022-11-02T05:10:05.208Z,69.47
2022-11-02T05:12:38.092Z,67.22
2022-11-02T05:15:06.228Z,63.78
2022-11-02T05:17:33.837Z,64.57
2022-11-02T05:20:05.915Z,64.70
2022-11-02T05:22:33.763Z,63.53
2022-11-02T05:25:05.513Z,62.85
2022-11-02T05:27:34.873Z,59.78
2022-11-02T05:30:05.934Z,59.28
2022-11-02T05:32:35.744Z,60.53
2022-11-02T05:35:05.735Z,60.63
2022-11-02T05:37:34.769Z,62.33
2022-11-02T05:40:07.661Z,60.55
2022-11-02T05:42:38.047Z,62.05
2022-11-02T05:45:06.382Z,63.97
2022-11-02T05:47:38.241Z,60.42
2022-11-02T05:50:06.055Z,63.15
2022-11-02T05:52:37.615Z,67.72
2022-11-02T05:55:08.858Z,65.68
2022-11-02T05:57:39.127Z,62.33
2022-11-02T06:00:11.349Z,64.20
2022-11-02T06:03:02.521Z,65.05
2022-11-02T06:05:33.709Z,60.45
2022-11-02T06:08:04.995Z,63.65
2022-11-02T06:10:35.142Z,61.53
2022-11-02T06:13:06.979Z,60.85
2022-11-02T06:15:34.634Z,60.97
2022-11-02T06:18:01.816Z,61.33
2022-11-02T06:20:33.236Z,61.83
2022-11-02T06:23:05.368Z,60.28
2022-11-02T06:25:34.249Z,56.92
2022-11-02T06:28:04.113Z,57.28
2022-11-02T06:30:32.823Z,58.55
2022-11-02T06:33:07.376Z,56.38
2022-11-02T06:35:35.794Z,55.65
2022-11-02T06:38:03.824Z,57.15
2022-11-02T06:40:32.274Z,56.25
2022-11-02T06:43:15.921Z,53.72
2022-11-02T06:45:49.168Z,56.10
2022-11-02T06:48:20.354Z,55.72
2022-11-02T06:50:49.986Z,55.05
2022-11-02T06:53:20.965Z,53.42
2022-11-02T06:55:57.817Z,51.63
2022-11-02T06:58:28.308Z,52.85
2022-11-02T07:01:09.823Z,52.53
2022-11-02T07:03:37.816Z,52.05
2022-11-02T07:06:09.797Z,48.05
2022-11-02T07:08:42.580Z,49.53
2022-11-02T07:11:24.505Z,48.85
2022-11-02T07:13:53.411Z,47.92
2022-11-02T07:16:25.555Z,48.00
2022-11-02T07:18:53.054Z,48.15
2022-11-02T07:21:24.119Z,47.78
2022-11-02T07:23:53.305Z,45.63
2022-11-02T07:26:22.018Z,43.95
2022-11-02T07:28:56.738Z,43.70
2022-11-02T07:31:27.886Z,44.35
2022-11-02T07:33:57.006Z,46.28
2022-11-02T07:36:26.411Z,45.95
2022-11-02T07:38:56.204Z,43.38
2022-11-02T07:41:26.447Z,39.88
2022-11-02T07:43:55.903Z,40.05
2022-11-02T07:46:50.626Z,37.28
2022-11-02T07:49:21.440Z,38.65
2022-11-02T07:51:53.395Z,36.70
2022-11-02T07:54:26.621Z,37.15
2022-11-02T07:56:55.991Z,37.00
2022-11-02T07:59:23.869Z,36.00
2022-11-02T08:01:55.527Z,35.97
2022-11-02T08:04:27.452Z,32.85
2022-11-02T08:06:58.389Z,37.15
2022-11-02T08:09:26.927Z,36.13
2022-11-02T08:12:00.309Z,36.33
2022-11-02T08:14:28.884Z,35.67
2022-11-02T08:16:56.921Z,35.13
2022-11-02T08:19:29.975Z,36.47
2022-11-02T08:21:59.350Z,36.55
2022-11-02T08:24:26.899Z,35.75
2022-11-02T08:26:55.118Z,35.83
2022-11-02T08:29:22.997Z,39.55
2022-11-02T08:31:53.251Z,44.20
2022-11-02T08:34:24.832Z,39.08
2022-11-02T08:36:56.618Z,39.30
2022-11-02T08:39:32.501Z,40.70
2022-11-02T08:42:03.535Z,37.00
2022-11-02T08:44:34.531Z,38.35
2022-11-02T08:47:08.477Z,40.78
2022-11-02T08:49:37.978Z,37.70
2022-11-02T08:52:08.538Z,37.70
2022-11-02T08:54:36.237Z,39.03
2022-11-02T08:57:08.105Z,53.58
2022-11-02T08:59:38.615Z,48.72
2022-11-02T09:02:08.435Z,54.22
2022-11-02T09:04:40.585Z,57.30
2022-11-02T09:07:13.539Z,64.65
2022-11-02T09:09:43.235Z,35.20
2022-11-02T09:12:16.014Z,48.47
2022-11-02T09:14:47.363Z,48.65
2022-11-02T09:17:16.595Z,48.85
2022-11-02T09:19:48.038Z,55.08
2022-11-02T09:22:20.407Z,42.60
2022-11-02T09:24:49.974Z,50.88
2022-11-02T09:27:21.581Z,44.65
2022-11-02T09:29:50.224Z,40.35
2022-11-02T09:32:17.970Z,44.72
2022-11-02T09:34:47.541Z,49.15
2022-11-02T09:37:17.379Z,47.28
2022-11-02T09:39:48.003Z,47.97
2022-11-02T09:42:29.146Z,49.28
2022-11-02T09:45:11.422Z,47.63
2022-11-02T09:48:16.793Z,45.05
2022-11-02T09:51:02.095Z,43.33
2022-11-02T09:53:49.320Z,46.63
2022-11-02T09:56:22.621Z,47.58
2022-11-02T09:59:04.073Z,48.30
2022-11-02T10:02:26.143Z,55.58
2022-11-02T10:05:24.697Z,52.63
2022-11-02T10:08:30.075Z,50.72
2022-11-02T10:11:26.341Z,47.33
2022-11-02T10:14:31.647Z,47.35
2022-11-02T10:17:26.595Z,50.60
2022-11-02T10:19:57.178Z,46.88
2022-11-02T10:22:32.832Z,47.63
2022-11-02T10:25:06.379Z,47.65
2022-11-02T10:27:38.452Z,46.42
2022-11-02T10:30:22.739Z,49.42
2022-11-02T10:32:57.005Z,47.47
2022-11-02T10:38:55.783Z,52.30
2022-11-02T10:41:59.140Z,51.92
2022-11-02T10:44:52.120Z,47.92
2022-11-02T10:47:38.459Z,51.42
2022-11-02T10:50:54.530Z,53.00
2022-11-02T10:56:32.865Z,56.50
2022-11-02T10:59:01.024Z,52.13
2022-11-02T11:01:31.558Z,54.90
2022-11-02T11:04:04.285Z,54.80
2022-11-02T11:06:40.803Z,55.47
2022-11-02T11:09:21.564Z,54.03
2022-11-02T11:12:26.459Z,56.85
2022-11-02T11:21:06.753Z,54.95
2022-11-02T11:23:37.538Z,56.97
2022-11-02T11:26:15.593Z,54.10
2022-11-02T11:28:56.118Z,52.80
2022-11-02T11:31:42.124Z,51.22
2022-11-02T11:34:27.186Z,49.63
2022-11-02T11:37:08.827Z,54.33
2022-11-02T11:39:42.094Z,48.03
2022-11-02T11:42:31.384Z,50.53
2022-11-02T11:45:09.564Z,51.83
2022-11-02T11:47:41.808Z,51.72
2022-11-02T11:50:29.667Z,51.38
2022-11-02T11:53:28.408Z,53.20
2022-11-02T11:56:02.701Z,50.55
2022-11-02T11:58:34.618Z,54.60
2022-11-02T12:01:22.495Z,54.63
2022-11-02T12:04:03.348Z,50.90
2022-11-02T12:06:55.496Z,49.85
2022-11-02T12:09:50.468Z,51.25
2022-11-02T12:12:56.983Z,48.35
2022-11-02T12:16:04.072Z,47.13
2022-11-02T12:19:15.804Z,48.08
2022-11-02T12:25:30.388Z,45.58
2022-11-02T12:28:38.635Z,46.97
2022-11-02T12:31:41.009Z,44.67
2022-11-02T12:34:34.976Z,49.60
2022-11-02T12:37:40.518Z,47.70
2022-11-02T12:40:11.809Z,45.80
2022-11-02T12:43:24.970Z,47.42
2022-11-02T12:46:22.103Z,49.15
2022-11-02T12:49:24.923Z,49.90
2022-11-02T12:52:36.883Z,50.53
2022-11-02T12:55:28.121Z,49.47
2022-11-02T12:58:15.760Z,50.85
2022-11-02T13:00:48.161Z,48.83
2022-11-02T13:03:55.055Z,50.85
2022-11-02T13:06:50.857Z,46.10
2022-11-02T13:09:58.099Z,47.78
2022-11-02T13:12:31.377Z,46.20
2022-11-02T13:15:10.893Z,48.53
2022-11-02T13:17:59.276Z,50.95
2022-11-02T13:20:41.952Z,49.63
2022-11-02T13:26:57.604Z,48.78
2022-11-02T13:29:59.863Z,47.75
2022-11-02T13:32:43.905Z,50.58
2022-11-02T13:35:36.691Z,48.08
2022-11-02T13:41:37.704Z,51.90
2022-11-02T13:44:28.852Z,50.80
2022-11-02T13:47:31.519Z,54.03
2022-11-02T13:50:07.996Z,57.17
2022-11-02T13:53:09.116Z,57.30
2022-11-02T13:55:45.762Z,56.63
2022-11-02T13:58:39.022Z,63.60
2022-11-02T14:01:12.985Z,64.68
2022-11-02T14:04:16.938Z,62.38
2022-11-02T14:06:59.716Z,63.45
2022-11-02T14:09:53.699Z,66.68
2022-11-02T14:12:31.688Z,64.28
2022-11-02T14:15:22.487Z,63.83
2022-11-02T14:18:15.171Z,55.20
2022-11-02T14:20:51.096Z,49.50
2022-11-02T14:23:49.927Z,49.42
2022-11-02T14:26:35.161Z,47.75
2022-11-02T14:29:31.810Z,45.90
2022-11-02T14:32:14.516Z,51.70
2022-11-02T14:34:48.079Z,54.88
2022-11-02T14:37:49.122Z,48.00
2022-11-02T14:40:54.912Z,50.28
2022-11-02T14:44:02.595Z,47.25
2022-11-02T14:47:01.407Z,40.67
2022-11-02T14:49:36.726Z,34.20
2022-11-02T14:52:28.969Z,28.92
2022-11-02T14:55:28.918Z,29.88
2022-11-02T14:58:18.602Z,29.20
2022-11-02T15:01:06.311Z,27.85
2022-11-02T15:03:42.038Z,29.08
2022-11-02T15:06:29.576Z,26.23
2022-11-02T15:09:02.213Z,25.52
2022-11-02T15:11:46.526Z,22.67
2022-11-02T15:14:41.925Z,21.47
2022-11-02T15:17:21.843Z,26.17
2022-11-02T15:20:14.461Z,24.85
2022-11-02T15:22:49.679Z,23.88
2022-11-02T15:25:33.989Z,23.83
2022-11-02T15:28:20.575Z,24.25
2022-11-02T15:31:09.715Z,23.30
2022-11-02T15:33:48.860Z,23.83
2022-11-02T15:36:41.727Z,23.65
2022-11-02T15:39:19.923Z,22.00
2022-11-02T15:42:28.684Z,23.38
2022-11-02T15:45:56.850Z,23.95
2022-11-02T15:48:59.392Z,23.55
2022-11-02T15:52:06.135Z,23.80
2022-11-02T15:55:10.670Z,26.23
2022-11-02T15:58:08.126Z,24.00
2022-11-02T16:00:39.039Z,23.52
2022-11-02T16:03:12.867Z,25.50
2022-11-02T16:05:50.017Z,24.45
2022-11-02T16:11:34.560Z,25.27
2022-11-02T16:14:20.364Z,24.60
2022-11-02T16:16:52.428Z,23.77
2022-11-02T16:19:24.860Z,23.65
2022-11-02T16:21:55.955Z,23.80
2022-11-02T16:24:28.868Z,24.50
2022-11-02T16:26:58.342Z,23.27
2022-11-02T16:29:39.389Z,25.35
2022-11-02T16:32:12.377Z,25.33
2022-11-02T16:34:42.262Z,24.02
2022-11-02T16:37:20.060Z,25.77
2022-11-02T16:39:53.138Z,26.05
2022-11-02T16:42:26.468Z,27.15
2022-11-02T16:45:05.552Z,27.60
2022-11-02T16:47:51.223Z,26.98
2022-11-02T16:50:22.452Z,27.27
2022-11-02T16:53:02.405Z,28.25
2022-11-02T16:55:46.086Z,26.80
2022-11-02T16:58:24.247Z,28.17
2022-11-02T17:01:05.825Z,25.65
2022-11-02T17:03:39.293Z,29.88
2022-11-02T17:06:12.666Z,28.15
2022-11-02T17:11:19.006Z,29.55
2022-11-02T17:14:02.647Z,28.20
2022-11-02T17:16:37.570Z,29.70
2022-11-02T17:19:06.174Z,28.50
2022-11-02T17:21:37.085Z,28.77
2022-11-02T17:24:31.973Z,29.33
2022-11-02T17:27:18.343Z,28.70
2022-11-02T17:29:48.072Z,28.80
2022-11-02T17:32:20.000Z,28.75
2022-11-02T17:34:58.994Z,30.95
2022-11-02T17:37:29.631Z,29.88
2022-11-02T17:40:02.242Z,36.45
2022-11-02T17:42:50.979Z,31.70
2022-11-02T17:45:43.875Z,31.02
2022-11-02T17:48:13.673Z,32.08
2022-11-02T17:50:44.411Z,30.50
2022-11-02T17:53:18.955Z,31.52
2022-11-02T17:55:47.625Z,29.95
2022-11-02T17:58:17.906Z,31.90
2022-11-02T18:00:49.773Z,32.53
2022-11-02T18:03:22.323Z,31.45
2022-11-02T18:08:29.113Z,31.35
2022-11-02T18:10:57.784Z,36.17
2022-11-02T18:13:29.185Z,35.30
2022-11-02T18:15:59.940Z,34.47
2022-11-02T18:18:32.611Z,35.65
2022-11-02T18:23:47.410Z,36.90
2022-11-02T18:26:17.896Z,39.10
2022-11-02T18:28:46.811Z,41.22
2022-11-02T18:31:19.170Z,39.20
2022-11-02T18:33:49.767Z,36.03
2022-11-02T18:36:18.903Z,34.85
2022-11-02T18:38:49.879Z,34.88
2022-11-02T18:41:31.083Z,35.47
2022-11-02T18:44:05.741Z,33.72
2022-11-02T18:46:41.115Z,34.83
2022-11-02T18:49:12.166Z,32.88
2022-11-02T18:51:43.939Z,32.13
2022-11-02T18:54:15.688Z,31.52
2022-11-02T18:56:46.898Z,32.47
2022-11-02T18:59:14.916Z,30.73
2022-11-02T19:01:43.716Z,33.75
2022-11-02T19:04:17.210Z,30.38
2022-11-02T19:07:10.055Z,34.05
2022-11-02T19:09:46.688Z,33.58
2022-11-02T19:12:33.230Z,35.05
2022-11-02T19:15:02.957Z,35.58
2022-11-02T19:17:33.020Z,38.35
2022-11-02T19:20:03.202Z,36.00
2022-11-02T19:22:33.161Z,37.42
2022-11-02T19:25:05.125Z,38.00
2022-11-02T19:27:35.891Z,40.88
2022-11-02T19:30:05.394Z,40.97
2022-11-02T19:32:36.221Z,35.90
2022-11-02T19:35:04.928Z,36.80
2022-11-02T19:37:34.891Z,39.30
2022-11-02T19:40:03.819Z,39.25
2022-11-02T19:42:34.027Z,40.50
2022-11-02T19:45:04.223Z,39.30
2022-11-02T19:47:32.990Z,37.55
2022-11-02T19:50:02.131Z,37.17
2022-11-02T19:52:34.171Z,39.90
2022-11-02T19:55:04.257Z,40.08
2022-11-02T19:57:34.198Z,40.55
2022-11-02T20:00:05.235Z,41.60
2022-11-02T20:02:55.954Z,42.17
2022-11-02T20:05:27.435Z,44.78
2022-11-02T20:07:58.481Z,40.92
2022-11-02T20:10:28.051Z,42.63
2022-11-02T20:12:57.046Z,41.83
2022-11-02T20:15:25.656Z,43.67
2022-11-02T20:18:18.412Z,42.08
2022-11-02T20:20:48.977Z,44.35
2022-11-02T20:23:18.871Z,42.20
2022-11-02T20:25:47.273Z,40.00
2022-11-02T20:28:17.295Z,39.75
2022-11-02T20:30:46.763Z,41.60
2022-11-02T20:33:14.745Z,39.50
2022-11-02T20:35:47.937Z,40.75
2022-11-02T20:38:18.448Z,42.83
2022-11-02T20:40:49.287Z,40.33
2022-11-02T20:43:17.690Z,42.08
2022-11-02T20:45:47.314Z,41.45
2022-11-02T20:48:18.063Z,43.10
2022-11-02T20:50:46.785Z,41.90
2022-11-02T20:53:14.720Z,41.53
2022-11-02T20:55:45.706Z,40.38
2022-11-02T20:58:13.765Z,39.55
2022-11-02T21:00:44.678Z,42.58
2022-11-02T21:03:13.344Z,40.85
2022-11-02T21:05:46.152Z,41.17
2022-11-02T21:08:14.360Z,39.65
2022-11-02T21:10:44.185Z,39.67
2022-11-02T21:13:36.770Z,40.78
2022-11-02T21:16:05.237Z,40.25
2022-11-02T21:18:37.299Z,37.85
2022-11-02T21:21:09.033Z,41.80
2022-11-02T21:23:42.685Z,41.47
2022-11-02T21:26:13.418Z,40.13
2022-11-02T21:28:47.182Z,41.92
2022-11-02T21:31:22.554Z,42.58
2022-11-02T21:33:52.955Z,43.47
2022-11-02T21:36:20.894Z,43.65
2022-11-02T21:38:50.445Z,45.38
2022-11-02T21:41:20.727Z,43.00
2022-11-02T21:43:52.034Z,47.97
2022-11-02T21:46:20.140Z,48.25
2022-11-02T21:48:51.400Z,46.75
2022-11-02T21:51:24.172Z,47.55
2022-11-02T21:53:56.600Z,46.78
2022-11-02T21:56:29.793Z,49.00
2022-11-02T21:59:01.333Z,50.60
2022-11-02T22:01:50.436Z,52.90
2022-11-02T22:04:24.899Z,48.83
2022-11-02T22:06:53.063Z,51.63
2022-11-02T22:09:21.817Z,52.55
2022-11-02T22:12:13.560Z,53.15
2022-11-02T22:14:46.140Z,51.53
2022-11-02T22:17:35.431Z,48.53
2022-11-02T22:20:08.543Z,54.42
2022-11-02T22:22:36.826Z,48.00
2022-11-02T22:25:05.481Z,47.90
2022-11-02T22:27:33.032Z,50.28
2022-11-02T22:30:01.028Z,55.17
2022-11-02T22:32:32.229Z,50.80
2022-11-02T22:35:02.885Z,53.85
2022-11-02T22:37:52.637Z,54.22
2022-11-02T22:40:26.114Z,51.38
2022-11-02T22:42:55.069Z,51.97
2022-11-02T22:45:25.895Z,49.92
2022-11-02T22:47:56.354Z,54.13
2022-11-02T22:50:28.020Z,51.92
2022-11-02T22:52:56.532Z,54.85
2022-11-02T22:55:25.756Z,55.17
2022-11-02T22:57:59.770Z,55.80
2022-11-02T23:00:27.909Z,57.53
2022-11-02T23:02:59.554Z,57.30
2022-11-02T23:05:27.611Z,58.08
2022-11-02T23:07:54.865Z,53.78
2022-11-02T23:10:44.840Z,55.42
2022-11-02T23:13:15.589Z,52.47
2022-11-02T23:15:46.117Z,55.28
2022-11-02T23:18:16.565Z,51.65
2022-11-02T23:20:54.188Z,51.33
2022-11-02T23:23:43.830Z,50.10
2022-11-02T23:26:16.026Z,53.38
2022-11-02T23:29:14.624Z,53.55
2022-11-02T23:32:03.430Z,54.08
2022-11-02T23:34:32.086Z,54.97
2022-11-02T23:37:02.227Z,53.42
2022-11-02T23:39:48.134Z,55.25
2022-11-02T23:42:19.896Z,56.83
2022-11-02T23:44:48.359Z,55.78
2022-11-02T23:47:20.327Z,52.78
2022-11-02T23:49:51.414Z,52.78
2022-11-02T23:52:38.354Z,50.92
2022-11-02T23:55:32.339Z,54.78
2022-11-02T23:57:59.880Z,55.45
